createdAt,value
2018-11-25T06:12:16.645Z,46.00
2018-11-25T06:14:45.415Z,45.30
2018-11-25T06:17:14.144Z,45.30
2018-11-25T06:19:43.381Z,45.80
2018-11-25T06:22:12.533Z,46.00
2018-11-25T06:24:41.702Z,46.00
2018-11-25T06:27:11.134Z,46.20
2018-11-25T06:29:40.399Z,46.10
2018-11-25T06:32:09.223Z,45.70
2018-11-25T06:34:38.334Z,45.60
2018-11-25T06:37:07.070Z,45.20
2018-11-25T06:39:36.150Z,44.80
2018-11-25T06:42:04.876Z,46.00
2018-11-25T06:47:02.391Z,44.80
2018-11-25T06:49:31.898Z,44.80
2018-11-25T06:52:01.545Z,44.20
2018-11-25T06:54:30.839Z,44.10
2018-11-25T06:57:00.347Z,44.30
2018-11-25T06:59:29.975Z,44.00
2018-11-25T07:01:59.373Z,45.10
2018-11-25T07:04:28.080Z,44.10
2018-11-25T07:06:57.217Z,44.00
2018-11-25T07:09:26.042Z,43.60
2018-11-25T07:11:55.183Z,43.40
2018-11-25T07:14:24.354Z,43.80
2018-11-25T07:16:53.506Z,43.10
2018-11-25T07:19:22.701Z,42.50
2018-11-25T07:21:51.508Z,42.30
2018-11-25T07:24:20.524Z,42.90
2018-11-25T07:26:49.619Z,41.80
2018-11-25T07:29:18.796Z,41.70
2018-11-25T07:31:47.510Z,41.70
2018-11-25T07:34:16.983Z,42.70
2018-11-25T07:36:46.138Z,42.60
2018-11-25T07:39:15.690Z,42.30
2018-11-25T07:41:45.122Z,42.40
2018-11-25T07:44:13.846Z,42.20
2018-11-25T07:46:42.971Z,41.90
2018-11-25T07:49:12.021Z,42.30
2018-11-25T07:51:42.588Z,42.40
2018-11-25T07:54:11.586Z,42.20
2018-11-25T07:59:09.795Z,42.00
2018-11-25T08:01:39.326Z,41.80
2018-11-25T08:04:08.543Z,41.40
2018-11-25T08:06:37.963Z,41.60
2018-11-25T08:09:09.986Z,41.60
2018-11-25T08:11:40.350Z,41.80
2018-11-25T08:14:11.681Z,42.10
2018-11-25T08:16:41.119Z,42.80
2018-11-25T08:19:10.571Z,42.40
2018-11-25T08:21:39.980Z,41.40
2018-11-25T08:24:09.188Z,41.70
2018-11-25T08:26:40.211Z,42.10
2018-11-25T08:29:09.759Z,41.60
2018-11-25T08:31:39.182Z,41.90
2018-11-25T08:34:09.407Z,41.80
2018-11-25T08:36:39.587Z,41.80
2018-11-25T08:39:09.634Z,41.50
2018-11-25T08:41:39.136Z,42.00
2018-11-25T08:44:08.746Z,41.50
2018-11-25T08:46:39.991Z,41.90
2018-11-25T08:51:37.950Z,41.20
2018-11-25T08:54:07.020Z,40.90
2018-11-25T08:56:36.515Z,41.60
2018-11-25T08:59:08.122Z,40.70
2018-11-25T09:01:37.130Z,40.40
2018-11-25T09:04:08.152Z,40.60
2018-11-25T09:06:37.699Z,40.50
2018-11-25T09:09:08.705Z,40.40
2018-11-25T09:11:38.122Z,40.40
2018-11-25T09:14:07.126Z,40.30
2018-11-25T09:16:37.679Z,40.20
2018-11-25T09:19:06.111Z,40.30
2018-11-25T09:21:35.499Z,40.20
2018-11-25T09:24:06.888Z,40.10
2018-11-25T09:26:35.952Z,40.00
2018-11-25T09:29:04.971Z,40.10
2018-11-25T09:31:34.706Z,40.10
2018-11-25T09:34:03.463Z,40.10
2018-11-25T09:36:33.336Z,40.10
2018-11-25T09:39:02.569Z,40.20
2018-11-25T09:41:31.548Z,40.50
2018-11-25T09:44:01.055Z,40.30
2018-11-25T09:46:30.134Z,40.50
2018-11-25T09:48:59.244Z,40.60
2018-11-25T09:51:28.703Z,40.50
2018-11-25T09:53:57.983Z,40.50
2018-11-25T09:56:27.575Z,40.90
2018-11-25T09:58:57.210Z,40.70
2018-11-25T10:01:27.476Z,40.80
2018-11-25T10:03:56.960Z,40.60
2018-11-25T10:06:26.338Z,40.60
2018-11-25T10:08:55.198Z,40.70
2018-11-25T10:11:24.291Z,40.60
2018-11-25T10:13:53.822Z,40.70
2018-11-25T10:16:24.966Z,40.70
2018-11-25T10:18:54.463Z,40.80
2018-11-25T10:21:23.147Z,41.10
2018-11-25T10:23:52.343Z,41.20
2018-11-25T10:26:21.755Z,41.10
2018-11-25T10:28:51.335Z,40.90
2018-11-25T10:31:21.751Z,41.00
2018-11-25T10:33:51.022Z,40.80
2018-11-25T10:36:20.442Z,40.70
2018-11-25T10:38:49.881Z,40.80
2018-11-25T10:41:19.362Z,40.50
2018-11-25T10:43:48.887Z,40.70
2018-11-25T10:46:19.149Z,40.70
2018-11-25T10:48:48.259Z,40.80
2018-11-25T10:51:17.821Z,40.80
2018-11-25T10:56:16.816Z,41.10
2018-11-25T10:58:45.574Z,40.80
2018-11-25T11:01:19.915Z,40.90
2018-11-25T11:03:56.360Z,40.80
2018-11-25T11:06:33.053Z,41.00
2018-11-25T11:09:02.162Z,40.90
2018-11-25T11:11:31.632Z,41.20
2018-11-25T11:14:01.814Z,40.90
2018-11-25T11:16:31.588Z,40.90
2018-11-25T11:19:01.240Z,41.00
2018-11-25T11:21:30.210Z,41.00
2018-11-25T11:23:59.623Z,41.20
2018-11-25T11:26:29.027Z,41.00
2018-11-25T11:28:58.566Z,41.10
2018-11-25T11:31:28.058Z,41.10
2018-11-25T11:33:57.787Z,41.10
2018-11-25T11:36:27.279Z,41.10
2018-11-25T11:38:56.677Z,41.00
2018-11-25T11:41:26.234Z,41.00
2018-11-25T11:43:55.394Z,41.10
2018-11-25T11:46:24.910Z,41.30
2018-11-25T11:48:55.310Z,41.00
2018-11-25T11:51:25.870Z,41.30
2018-11-25T11:53:53.935Z,41.00
2018-11-25T11:56:23.463Z,41.20
2018-11-25T11:58:52.319Z,41.80
2018-11-25T12:01:21.918Z,41.10
2018-11-25T12:03:51.575Z,41.00
2018-11-25T12:06:20.967Z,41.10
2018-11-25T12:08:50.456Z,41.20
2018-11-25T12:11:19.951Z,41.40
2018-11-25T12:13:49.564Z,41.10
2018-11-25T12:16:18.727Z,41.00
2018-11-25T12:18:48.203Z,41.40
2018-11-25T12:21:17.610Z,41.10
2018-11-25T12:23:46.674Z,41.30
2018-11-25T12:28:44.324Z,41.30
2018-11-25T12:31:13.362Z,41.20
2018-11-25T12:33:42.710Z,41.50
2018-11-25T12:36:12.205Z,41.40
2018-11-25T12:38:41.764Z,41.30
2018-11-25T12:41:10.759Z,41.30
2018-11-25T12:43:40.218Z,41.20
2018-11-25T12:46:09.209Z,41.30
2018-11-25T12:48:38.607Z,41.80
2018-11-25T12:51:08.012Z,41.70
2018-11-25T12:53:37.206Z,42.10
2018-11-25T12:58:35.599Z,41.50
2018-11-25T13:01:05.171Z,41.40
2018-11-25T13:03:36.334Z,41.30
2018-11-25T13:06:05.795Z,41.20
2018-11-25T13:08:35.571Z,41.40
2018-11-25T13:11:05.678Z,41.40
2018-11-25T13:13:35.098Z,41.50
2018-11-25T13:16:05.060Z,41.50
2018-11-25T13:18:35.763Z,41.50
2018-11-25T13:21:03.858Z,41.50
2018-11-25T13:23:33.507Z,41.40
2018-11-25T13:26:04.491Z,41.40
2018-11-25T13:28:33.886Z,41.90
2018-11-25T13:31:03.930Z,41.50
2018-11-25T13:33:32.660Z,41.40
2018-11-25T13:36:02.074Z,41.50
2018-11-25T13:38:31.617Z,41.50
2018-11-25T13:41:01.024Z,41.40
2018-11-25T13:43:30.110Z,41.60
2018-11-25T13:45:59.695Z,41.40
2018-11-25T13:48:29.153Z,41.40
2018-11-25T13:51:09.414Z,41.60
2018-11-25T13:53:39.172Z,42.00
2018-11-25T13:56:08.390Z,41.40
2018-11-25T13:58:38.482Z,41.60
2018-11-25T14:01:07.437Z,41.40
2018-11-25T14:03:39.382Z,41.40
2018-11-25T14:06:13.136Z,41.30
2018-11-25T14:08:42.903Z,41.40
2018-11-25T14:11:14.728Z,41.60
2018-11-25T14:13:44.295Z,41.70
2018-11-25T14:16:20.091Z,41.70
2018-11-25T14:18:50.538Z,41.50
2018-11-25T14:21:20.862Z,41.40
2018-11-25T14:23:50.399Z,41.50
2018-11-25T14:26:23.429Z,41.70
2018-11-25T14:28:52.408Z,41.80
2018-11-25T14:31:21.967Z,41.70
2018-11-25T14:33:51.130Z,41.70
2018-11-25T14:36:21.371Z,41.50
2018-11-25T14:38:50.812Z,41.40
2018-11-25T14:41:19.983Z,41.50
2018-11-25T14:43:49.546Z,41.30
2018-11-25T14:46:19.182Z,41.30
2018-11-25T14:48:48.374Z,41.40
2018-11-25T14:51:18.992Z,41.80
2018-11-25T14:53:48.679Z,41.40
2018-11-25T14:56:19.275Z,41.70
2018-11-25T14:58:48.771Z,41.50
2018-11-25T15:01:19.211Z,41.50
2018-11-25T15:03:49.732Z,41.40
2018-11-25T15:06:19.205Z,41.40
2018-11-25T15:08:49.046Z,41.60
2018-11-25T15:11:18.222Z,41.70
2018-11-25T15:16:16.746Z,42.10
2018-11-25T15:18:46.326Z,41.70
2018-11-25T15:21:16.024Z,42.30
2018-11-25T15:23:45.550Z,41.80
2018-11-25T15:26:17.091Z,41.80
2018-11-25T15:28:46.327Z,41.70
2018-11-25T15:31:15.945Z,42.30
2018-11-25T15:33:45.043Z,42.40
2018-11-25T15:36:14.499Z,42.50
2018-11-25T15:38:43.631Z,42.30
2018-11-25T15:41:13.102Z,42.60
2018-11-25T15:43:43.463Z,43.40
2018-11-25T15:46:12.975Z,42.50
2018-11-25T15:48:41.761Z,42.40
2018-11-25T15:51:11.363Z,42.00
2018-11-25T15:53:40.942Z,41.60
2018-11-25T15:56:10.471Z,41.70
2018-11-25T15:58:41.017Z,41.70
2018-11-25T16:01:10.762Z,41.50
2018-11-25T16:03:41.075Z,41.20
2018-11-25T16:06:15.535Z,41.50
2018-11-25T16:08:44.601Z,41.20
2018-11-25T16:11:13.713Z,41.20
2018-11-25T16:13:44.176Z,41.20
2018-11-25T16:16:13.678Z,41.50
2018-11-25T16:18:42.744Z,41.30
2018-11-25T16:21:12.147Z,41.20
2018-11-25T16:23:41.996Z,41.20
2018-11-25T16:26:17.582Z,41.40
2018-11-25T16:31:16.640Z,41.30
2018-11-25T16:33:46.465Z,41.20
2018-11-25T16:36:15.558Z,41.10
2018-11-25T16:38:44.985Z,41.20
2018-11-25T16:43:44.747Z,41.40
2018-11-25T16:46:14.181Z,41.40
2018-11-25T16:48:43.608Z,41.80
2018-11-25T16:51:12.740Z,42.00
2018-11-25T16:53:42.859Z,42.00
2018-11-25T16:56:11.979Z,41.80
2018-11-25T16:58:41.422Z,41.80
2018-11-25T17:01:10.955Z,41.80
2018-11-25T17:03:40.418Z,41.70
2018-11-25T17:06:10.135Z,42.20
2018-11-25T17:08:40.882Z,41.50
2018-11-25T17:11:11.601Z,41.40
2018-11-25T17:13:41.731Z,41.70
2018-11-25T17:16:11.293Z,41.70
2018-11-25T17:18:42.838Z,41.80
2018-11-25T17:21:12.088Z,41.70
2018-11-25T17:28:38.600Z,41.50
2018-11-25T17:31:07.747Z,41.40
2018-11-25T17:33:37.231Z,41.40
2018-11-25T17:36:06.358Z,41.20
2018-11-25T17:38:36.125Z,41.20
2018-11-25T17:41:05.894Z,41.30
2018-11-25T17:43:35.415Z,41.40
2018-11-25T17:46:04.202Z,41.40
2018-11-25T17:48:34.113Z,41.80
2018-11-25T17:51:04.131Z,42.00
2018-11-25T17:53:33.679Z,42.10
2018-11-25T17:56:03.018Z,42.30
2018-11-25T17:58:33.404Z,42.50
2018-11-25T18:01:05.016Z,42.40
2018-11-25T18:03:35.630Z,42.40
2018-11-25T18:06:04.791Z,42.10
2018-11-25T18:08:35.753Z,42.10
2018-11-25T18:11:05.385Z,42.20
2018-11-25T18:13:37.891Z,42.30
2018-11-25T18:18:50.274Z,43.20
2018-11-25T18:21:24.237Z,43.00
2018-11-25T18:23:54.847Z,43.50
2018-11-25T18:26:24.421Z,43.00
2018-11-25T18:28:53.839Z,42.90
2018-11-25T18:31:23.277Z,43.50
2018-11-25T18:33:52.727Z,43.10
2018-11-25T18:36:22.243Z,43.10
2018-11-25T18:38:51.477Z,43.10
2018-11-25T18:41:21.868Z,42.90
2018-11-25T18:43:50.051Z,43.00
2018-11-25T18:46:21.182Z,43.00
2018-11-25T18:48:51.441Z,42.90
2018-11-25T18:51:20.902Z,43.20
2018-11-25T18:53:50.098Z,43.40
2018-11-25T18:56:19.591Z,43.10
2018-11-25T18:58:49.019Z,43.00
2018-11-25T19:01:25.298Z,43.10
2018-11-25T19:03:54.555Z,43.20
2018-11-25T19:06:24.404Z,43.00
2018-11-25T19:11:23.502Z,43.40
2018-11-25T19:13:52.694Z,43.90
2018-11-25T19:16:22.093Z,43.50
2018-11-25T19:18:52.010Z,43.90
2018-11-25T19:21:20.938Z,43.40
2018-11-25T19:23:54.809Z,43.50
2018-11-25T19:26:24.213Z,43.20
2018-11-25T19:28:54.537Z,43.30
2018-11-25T19:31:23.940Z,43.50
2018-11-25T19:33:55.084Z,43.40
2018-11-25T19:36:24.955Z,44.00
2018-11-25T19:38:54.398Z,43.60
2018-11-25T19:41:24.067Z,43.30
2018-11-25T19:43:53.822Z,44.10
2018-11-25T19:46:23.673Z,43.30
2018-11-25T19:48:53.812Z,43.30
2018-11-25T19:51:23.359Z,43.10
2018-11-25T19:53:53.211Z,43.30
2018-11-25T19:56:22.493Z,43.30
2018-11-25T19:58:57.199Z,43.30
2018-11-25T20:01:27.304Z,43.10
2018-11-25T20:03:56.943Z,43.80
2018-11-25T20:06:29.816Z,43.70
2018-11-25T20:08:59.682Z,43.90
2018-11-25T20:11:29.315Z,44.10
2018-11-25T20:13:58.898Z,44.10
2018-11-25T20:16:33.675Z,44.30
2018-11-25T20:19:03.186Z,44.50
2018-11-25T20:21:37.950Z,44.40
2018-11-25T20:24:07.843Z,44.20
2018-11-25T20:26:37.585Z,44.30
2018-11-25T20:29:07.640Z,44.30
2018-11-25T20:31:37.413Z,45.40
2018-11-25T20:34:08.781Z,45.70
2018-11-25T20:36:40.579Z,45.50
2018-11-25T20:39:16.722Z,45.00
2018-11-25T20:41:52.591Z,45.30
2018-11-25T20:44:22.709Z,45.30
2018-11-25T20:47:01.847Z,45.10
2018-11-25T20:49:31.227Z,45.10
2018-11-25T20:52:06.628Z,44.80
2018-11-25T20:54:37.481Z,44.70
2018-11-25T20:57:06.662Z,44.60
2018-11-25T20:59:36.146Z,44.60
2018-11-25T21:02:05.942Z,44.70
2018-11-25T21:04:36.883Z,44.70
2018-11-25T21:07:06.574Z,45.10
2018-11-25T21:09:36.289Z,44.80
2018-11-25T21:12:05.692Z,44.50
2018-11-25T21:14:35.602Z,44.40
2018-11-25T21:17:05.434Z,44.40
2018-11-25T21:19:34.939Z,44.30
2018-11-25T21:22:04.748Z,44.30
2018-11-25T21:24:34.765Z,44.20
2018-11-25T21:27:06.488Z,44.20
2018-11-25T21:29:36.380Z,44.20
2018-11-25T21:32:06.558Z,44.10
2018-11-25T21:34:36.235Z,44.10
2018-11-25T21:37:06.158Z,43.90
2018-11-25T21:39:36.710Z,43.80
2018-11-25T21:42:07.754Z,44.10
2018-11-25T21:44:37.573Z,43.90
2018-11-25T21:47:09.840Z,44.20
2018-11-25T21:49:40.062Z,44.10
2018-11-25T21:52:15.914Z,44.20
2018-11-25T21:54:45.751Z,44.20
